Home > Products > Valid Products > MTR

000
SAUS41 KPHI 251157
MTRACY
METAR KACY 251154Z 29003KT 10SM CLR 06/04 A2991 RMK AO2 SLP129
T00610039 10089 20044 53004





000
SAUS41 KPHI 251157
MTRACY
METAR KACY 251154Z 29003KT 10SM CLR 06/04 A2991 RMK AO2 SLP129
T00610039 10089 20044 53004





000
SAUS41 KPHI 251155
MTR12N
METAR K12N 251154Z AUTO 00000KT 03/02 A2989 RMK AO1 SLP125 T00280017
10100 20022 53000





000
SAUS41 KPHI 251155
MTR12N
METAR K12N 251154Z AUTO 00000KT 03/02 A2989 RMK AO1 SLP125 T00280017
10100 20022 53000





000
SAUS41 KPHI 251057
MTRACY
METAR KACY 251054Z AUTO 30003KT 10SM CLR 04/03 A2990 RMK AO2 SLP125
T00440028 TSNO





000
SAUS41 KPHI 251057
MTRACY
METAR KACY 251054Z AUTO 30003KT 10SM CLR 04/03 A2990 RMK AO2 SLP125
T00440028 TSNO





000
SAUS41 KPHI 251055
MTR12N
METAR K12N 251054Z AUTO 00000KT 03/01 A2989 RMK AO1 SLP124 T00280011





000
SAUS41 KPHI 251055
MTR12N
METAR K12N 251054Z AUTO 00000KT 03/01 A2989 RMK AO1 SLP124 T00280011





000
SAUS41 KPHI 250955
MTR12N
METAR K12N 250954Z AUTO 00000KT 03/02 A2988 RMK AO1 SLP121 T00280017





000
SAUS41 KPHI 250955
MTRACY
METAR KACY 250954Z AUTO 30008KT 10SM CLR 06/03 A2991 RMK AO2 SLP127
T00560033 TSNO





000
SAUS41 KPHI 250856
MTRACY
METAR KACY 250854Z 30006KT 10SM CLR 06/03 A2990 RMK AO2 SLP125
T00610033 51005





000
SAUS41 KPHI 250855
MTR12N
METAR K12N 250854Z AUTO 00000KT 03/02 A2989 RMK AO1 SLP123 T00330017
51002





000
SAUS41 KPHI 250757
MTRACY
METAR KACY 250754Z 30006KT 10SM CLR 07/04 A2990 RMK AO2 SLP123
T00720039





000
SAUS41 KPHI 250755
MTR12N
METAR K12N 250754Z AUTO 00000KT 06/01 A2989 RMK AO1 SLP121 T00560006





000
SAUS41 KPHI 250655
MTR12N
METAR K12N 250654Z AUTO 00000KT 08/01 A2989 RMK AO1 SLP122 T00830011





000
SAUS41 KPHI 250655
MTRACY
METAR KACY 250654Z 31006KT 10SM CLR 07/04 A2990 RMK AO2 SLP123
T00720039





000
SAUS41 KPHI 250555
MTR12N
METAR K12N 250554Z AUTO 34006KT 10/00 A2989 RMK AO1 SLP120 T01000000
10144 20100 53006





000
SAUS41 KPHI 250555
MTRACY
METAR KACY 250554Z 32004KT 10SM CLR 08/04 A2989 RMK AO2 SLP119
T00780039 10144 20072 51009





000
SAUS41 KPHI 250457
MTRACY
METAR KACY 250454Z 28005KT 10SM CLR 11/04 A2988 RMK AO2 SLP118
T01110044 402000072





000
SAUS41 KPHI 250455
MTR12N
METAR K12N 250454Z AUTO 34007KT 300V010 11/01 A2988 RMK AO1 SLP117
T01110011 401940089





000
SAUS41 KPHI 250355
MTRACY
METAR KACY 250354Z 28007KT 10SM CLR 12/04 A2987 RMK AO2 SLP114
T01170044





000
SAUS41 KPHI 250355
MTR12N
METAR K12N 250354Z AUTO 35005KT 12/02 A2987 RMK AO1 SLP115 T01170022





000
SAUS41 KPHI 250355
MTR12N
METAR K12N 250354Z AUTO 35005KT 12/02 A2987 RMK AO1 SLP115 T01170022





000
SAUS41 KPHI 250355
MTRACY
METAR KACY 250354Z 28007KT 10SM CLR 12/04 A2987 RMK AO2 SLP114
T01170044





000
SAUS41 KPHI 250257
MTRACY
METAR KACY 250254Z 27007KT 10SM CLR 13/04 A2986 RMK AO2 SLP110
T01280044 51005





000
SAUS41 KPHI 250255
MTR12N
METAR K12N 250254Z AUTO 35005KT 12/03 A2987 RMK AO1 SLP115 T01220028
51010





000
SAUS41 KPHI 250155
MTRACY
METAR KACY 250154Z 29009KT 10SM CLR 13/05 A2985 RMK AO2 SLP109
T01330050





000
SAUS41 KPHI 250155
MTR12N
METAR K12N 250154Z AUTO 01005KT 13/04 A2986 RMK AO1 SLP112 T01330039





000
SAUS41 KPHI 250055
MTRACY
METAR KACY 250054Z 27005KT 10SM CLR 13/07 A2985 RMK AO2 SLP107
T01330072





000
SAUS41 KPHI 250055
MTR12N
METAR K12N 250054Z AUTO VRB04KT 14/04 A2985 RMK AO1 SLP109 T01390044





000
SAUS41 KPHI 242357
MTRACY
METAR KACY 242354Z 26007KT 10SM CLR 14/08 A2984 RMK AO2 SLP105
T01440083 10200 20144 53016





000
SAUS41 KPHI 242355
MTR12N
METAR K12N 242354Z AUTO 00000KT 14/04 A2984 RMK AO1 SLP104 T01440044
10194 20144 51017





000
SAUS41 KPHI 242256
MTRACY
METAR KACY 242254Z 24006KT 10SM CLR 16/08 A2983 RMK AO2 SLP101
T01610083





000
SAUS41 KPHI 242255
MTR12N
METAR K12N 242254Z AUTO 34005KT 16/04 A2983 RMK AO1 SLP100 T01560039





000
SAUS41 KPHI 242157
MTRACY
METAR KACY 242154Z 28008KT 10SM CLR 17/08 A2981 RMK AO2 SLP092
T01720083





000
SAUS41 KPHI 242155
MTR12N
METAR K12N 242154Z AUTO 33005KT 17/05 A2980 RMK AO1 SLP091 T01670050





000
SAUS41 KPHI 242055
MTRACY
METAR KACY 242054Z 29011KT 10SM CLR 18/08 A2980 RMK AO2 SLP089
T01830078 55001





000
SAUS41 KPHI 242055
MTR12N
METAR K12N 242054Z AUTO 36010G17KT 18/05 A2979 RMK AO1 SLP086
T01830050 55002





000
SAUS41 KPHI 241956
MTRACY
METAR KACY 241954Z 32012KT 10SM CLR 18/07 A2979 RMK AO2 SLP086
T01830072 $





000
SAUS41 KPHI 241956
MTRACY
METAR KACY 241954Z 32012KT 10SM CLR 18/07 A2979 RMK AO2 SLP086
T01830072 $





000
SAUS41 KPHI 241955
MTR12N
METAR K12N 241954Z AUTO VRB06G14KT 19/05 A2977 RMK AO1 SLP081
T01890050





000
SAUS41 KPHI 241955
MTR12N
METAR K12N 241954Z AUTO VRB06G14KT 19/05 A2977 RMK AO1 SLP081
T01890050





000
SAUS41 KPHI 241857
MTRACY
METAR KACY 241854Z 30015G23KT 10SM CLR 20/08 A2979 RMK AO2 PK WND
31026/1836 SLP086 T02000078 $





000
SAUS41 KPHI 241855
MTR12N
METAR K12N 241854Z AUTO 35007G15KT 290V050 18/05 A2978 RMK AO1
SLP084 T01830050





000
SAUS41 KPHI 241756
MTRACY
METAR KACY 241754Z 32019G23KT 10SM CLR 19/07 A2980 RMK AO2 SLP089
T01890072 10194 20083 58022





000
SAUS41 KPHI 241755
MTR12N
METAR K12N 241754Z AUTO 36007G15KT 17/06 A2979 RMK AO1 SLP088
T01670056 10172 20100 58018





000
SAUS41 KPHI 241656
MTRACY
METAR KACY 241654Z 31019G24KT 10SM BKN042 18/08 A2982 RMK AO2 SLP097
T01780078





000
SAUS41 KPHI 241655
MTR12N
METAR K12N 241654Z AUTO VRB06G17KT 16/06 A2980 RMK AO1 SLP092
T01610061





000
SAUS41 KPHI 241557
MTRACY
METAR KACY 241554Z 33011KT 10SM BKN041 17/08 A2985 RMK AO2 SLP106
T01670078





000
SAUS41 KPHI 241555
MTR12N
METAR K12N 241554Z AUTO 36007G16KT 14/07 A2984 RMK AO1 SLP105
T01440067





000
SAUS41 KPHI 241455
MTR12N
METAR K12N 241454Z AUTO 36009G20KT 12/06 A2985 RMK AO1 SLP108
T01220061 50002





000
SAUS41 KPHI 241455
MTRACY
METAR KACY 241454Z 33015G26KT 10SM OVC034 14/07 A2986 RMK AO2 PK WND
32026/1452 SLP111 T01390072 51009





000
SAUS41 KPHI 241357
MTRACY
METAR KACY 241354Z 31015G20KT 10SM OVC032 14/08 A2986 RMK AO2 SLP109
T01390083





000
SAUS41 KPHI 241355
MTR12N
METAR K12N 241354Z AUTO 35008G16KT 11/06 A2985 RMK AO1 PK WND
36026/1256 SLP111 T01110056





000
SAUS41 KPHI 241256
MTRACY
METAR KACY 241254Z 29008KT 10SM CLR 12/08 A2985 RMK AO2 SLP106
T01220083





000
SAUS41 KPHI 241255
MTR12N
METAR K12N 241254Z AUTO 36011G23KT 10/05 A2985 RMK AO1 PK WND
36027/1224 SLP109 T01000050





000
SAUS41 KPHI 241157
MTRACY
METAR KACY 241154Z 29003KT 10SM CLR 08/07 A2984 RMK AO2 SLP103 70003
T00830072 10094 20072 53004





000
SAUS41 KPHI 241155
MTR12N
METAR K12N 241154Z AUTO VRB05G16KT 10/06 A2984 RMK AO1 SLP107 70005
T01000056 10100 20089 53008





000
SAUS41 KPHI 241056
MTRACY
METAR KACY 241054Z 25006KT 10SM CLR 08/07 A2983 RMK AO2 SLP100
T00830067





000
SAUS41 KPHI 241056
MTR12N
METAR K12N 241054Z AUTO 36007KT 340V070 10/06 A2983 RMK AO1 SLP104
T01000056





000
SAUS41 KPHI 241056
MTR12N
METAR K12N 241054Z AUTO 36007KT 340V070 10/06 A2983 RMK AO1 SLP104
T01000056





000
SAUS41 KPHI 241056
MTRACY
METAR KACY 241054Z 25006KT 10SM CLR 08/07 A2983 RMK AO2 SLP100
T00830067





000
SAUS41 KPHI 240955
MTRACY
METAR KACY 240954Z 33003KT 10SM FEW090 08/07 A2983 RMK AO2 SLP100
T00780067





000
SAUS41 KPHI 240955
MTR12N
METAR K12N 240954Z AUTO 35007KT 10/06 A2982 RMK AO1 SLP101 T01000061





000
SAUS41 KPHI 240857
MTRACY
METAR KACY 240854Z 30005KT 10SM CLR 08/06 A2982 RMK AO2 SLP099
T00780061 51010





000
SAUS41 KPHI 240855
MTR12N
METAR K12N 240854Z AUTO 35006KT 09/06 A2982 RMK AO1 SLP099 T00940061
53003





000
SAUS41 KPHI 240757
MTRACY
METAR KACY 240754Z 27005KT 10SM SCT065 09/07 A2982 RMK AO2 SLP097
T00890067





000
SAUS41 KPHI 240755
MTR12N
METAR K12N 240754Z AUTO 36005KT 09/06 A2982 RMK AO1 SLP099 T00940056





000
SAUS41 KPHI 240656
MTR12N
METAR K12N 240654Z AUTO 35007KT 09/06 A2981 RMK AO1 SLP095 T00940056





000
SAUS41 KPHI 240655
MTRACY
METAR KACY 240654Z 26006KT 10SM FEW065 09/07 A2981 RMK AO2 SLP093
T00890067





000
SAUS41 KPHI 240557
MTRACY
METAR KACY 240554Z 32008KT 10SM CLR 09/07 A2979 RMK AO2 SLP088
T00940067 10117 20094 55003





000
SAUS41 KPHI 240555
MTR12N
METAR K12N 240554Z AUTO VRB03KT 09/06 A2981 RMK AO1 SLP095 T00940056
10100 20089 56006





000
SAUS41 KPHI 240456
MTRACY
METAR KACY 240454Z 32012KT 10SM SCT047 10/07 A2979 RMK AO2 SLP087
T01000067 401220100





000
SAUS41 KPHI 240456
MTRACY
METAR KACY 240454Z 32012KT 10SM SCT047 10/07 A2979 RMK AO2 SLP087
T01000067 401220100





000
SAUS41 KPHI 240455
MTR12N
METAR K12N 240454Z AUTO VRB06KT 09/06 A2981 RMK AO1 SLP096 T00940056
401060089





000
SAUS41 KPHI 240455
MTR12N
METAR K12N 240454Z AUTO VRB06KT 09/06 A2981 RMK AO1 SLP096 T00940056
401060089





000
SAUS41 KPHI 240357
MTRACY
METAR KACY 240354Z 31012KT 10SM FEW120 10/07 A2979 RMK AO2 SLP087
T01000067





000
SAUS41 KPHI 240357
MTRACY
METAR KACY 240354Z 31012KT 10SM FEW120 10/07 A2979 RMK AO2 SLP087
T01000067





000
SAUS41 KPHI 240355
MTR12N
METAR K12N 240354Z AUTO 35007KT 330V040 09/06 A2982 RMK AO1 SLP099
T00940061





000
SAUS41 KPHI 240355
MTR12N
METAR K12N 240354Z AUTO 35007KT 330V040 09/06 A2982 RMK AO1 SLP099
T00940061





000
SAUS41 KPHI 240256
MTRACY
METAR KACY 240254Z 32013KT 10SM FEW100 11/07 A2980 RMK AO2 SLP092
T01060067 51004





000
SAUS41 KPHI 240256
MTRACY
METAR KACY 240254Z 32013KT 10SM FEW100 11/07 A2980 RMK AO2 SLP092
T01060067 51004





000
SAUS41 KPHI 240255
MTR12N
METAR K12N 240254Z AUTO 35007KT 10/06 A2982 RMK AO1 SLP101 T01000061
50004





000
SAUS41 KPHI 240255
MTR12N
METAR K12N 240254Z AUTO 35007KT 10/06 A2982 RMK AO1 SLP101 T01000061
50004





000
SAUS41 KPHI 240156
MTRACY
METAR KACY 240154Z 32015G20KT 10SM OVC046 11/07 A2980 RMK AO2 SLP092
T01110067





000
SAUS41 KPHI 240156
MTRACY
METAR KACY 240154Z 32015G20KT 10SM OVC046 11/07 A2980 RMK AO2 SLP092
T01110067





000
SAUS41 KPHI 240155
MTR12N
METAR K12N 240154Z AUTO 35005KT 10/06 A2983 RMK AO1 SLP103 T01000061





000
SAUS41 KPHI 240155
MTR12N
METAR K12N 240154Z AUTO 35005KT 10/06 A2983 RMK AO1 SLP103 T01000061





000
SAUS41 KPHI 240055
MTR12N
METAR K12N 240054Z AUTO 01008G22KT 330V050 10/06 A2982 RMK AO1
SLP100 T01000061





000
SAUS41 KPHI 240055
MTRACY
METAR KACY 240054Z 32014KT 10SM OVC041 12/07 A2980 RMK AO2 SLP091
T01170072





000
SAUS41 KPHI 232355
MTRACY
METAR KACY 232354Z 31012G18KT 10SM BKN040 OVC065 12/07 A2979 RMK AO2
SLP087 60001 T01170072 10122 20111 53019





000
SAUS41 KPHI 232355
MTR12N
METAR K12N 232354Z AUTO 36009G16KT 320V040 10/06 A2981 RMK AO1
SLP098 60001 T01000061 10106 20100 51013





000
SAUS41 KPHI 232255
MTR12N
METAR K12N 232254Z AUTO 35008KT 310V030 10/06 A2980 RMK AO1 SLP094
T01000061





000
SAUS41 KPHI 232255
MTRACY
METAR KACY 232254Z AUTO 32014KT 10SM OVC037 12/07 A2977 RMK AO2
SLP081 T01170072 TSNO





000
SAUS41 KPHI 232157
MTRACY
METAR KACY 232154Z 31014KT 10SM OVC037 12/08 A2975 RMK AO2 SLP074
T01170078





000
SAUS41 KPHI 232155
MTR12N
METAR K12N 232154Z AUTO VRB04KT 10/06 A2979 RMK AO1 SLP090 T01000061





000
SAUS41 KPHI 232055
MTR12N
METAR K12N 232054Z AUTO 35008G18KT 310V050 10/06 A2977 RMK AO1
SLP084 60001 T01000056 52007





000
SAUS41 KPHI 232055
MTRACY
METAR KACY 232054Z 31013KT 10SM BKN033 BKN060 OVC100 12/08 A2974 RMK
AO2 SLP069 60001 T01170083 53001





000
SAUS41 KPHI 231955
MTR12N
METAR K12N 231954Z AUTO 36010G17KT 330V050 10/07 A2976 RMK AO1
SLP081 T01000067





000
SAUS41 KPHI 231955
MTR12N
METAR K12N 231954Z AUTO 36010G17KT 330V050 10/07 A2976 RMK AO1
SLP081 T01000067





000
SAUS41 KPHI 231955
MTRACY
METAR KACY 231954Z 31018G23KT 10SM SCT023 OVC035 12/09 A2973 RMK AO2
RAB01E32 SLP067 P0000 T01170094





000
SAUS41 KPHI 231955
MTRACY
METAR KACY 231954Z 31018G23KT 10SM SCT023 OVC035 12/09 A2973 RMK AO2
RAB01E32 SLP067 P0000 T01170094





000
SAUS41 KPHI 231857
MTRACY
METAR KACY 231854Z 31014KT 10SM FEW020 OVC032 12/11 A2972 RMK AO2
RAE28 SLP065 P0001 T01220106





000
SAUS41 KPHI 231857
MTRACY
METAR KACY 231854Z 31014KT 10SM FEW020 OVC032 12/11 A2972 RMK AO2
RAE28 SLP065 P0001 T01220106





000
SAUS41 KPHI 231855
MTR12N
METAR K12N 231854Z AUTO 34007G16KT 280V050 10/07 A2976 RMK AO1
SLP080 P0001 T01000072





000
SAUS41 KPHI 231855
MTR12N
METAR K12N 231854Z AUTO 34007G16KT 280V050 10/07 A2976 RMK AO1
SLP080 P0001 T01000072





000
SAUS41 KPHI 231757
MTRACY
METAR KACY 231754Z 31014KT 8SM -RA FEW010 SCT021 OVC031 11/10 A2973
RMK AO2 RAB1656 SLP067 P0002 60002 T01110100 10111 20100 58001





000
SAUS41 KPHI 231757
MTRACY
METAR KACY 231754Z 31014KT 8SM -RA FEW010 SCT021 OVC031 11/10 A2973
RMK AO2 RAB1656 SLP067 P0002 60002 T01110100 10111 20100 58001





000
SAUS41 KPHI 231755
MTR12N
METAR K12N 231754Z AUTO 36007KT 330V040 10/07 A2975 RMK AO1 SLP077
60004 T01000072 10106 20089 58005





000
SAUS41 KPHI 231755
MTR12N
METAR K12N 231754Z AUTO 36007KT 330V040 10/07 A2975 RMK AO1 SLP077
60004 T01000072 10106 20089 58005





000
SAUS41 KPHI 231746
MTRACY
SPECI KACY 231743Z 31015KT 5SM -RA BR FEW008 BKN020 OVC029 11/09
A2973 RMK AO2 RAB1656 P0001 T01060094





000
SAUS41 KPHI 231746
MTRACY
SPECI KACY 231743Z 31015KT 5SM -RA BR FEW008 BKN020 OVC029 11/09
A2973 RMK AO2 RAB1656 P0001 T01060094





000
SAUS41 KPHI 231734
MTRACY
SPECI KACY 231733Z 31015KT 6SM -RA BR FEW010 BKN014 OVC020 11/09
A2974 RMK AO2 RAB1656 P0001 T01060094





000
SAUS41 KPHI 231656
MTRACY
METAR KACY 231654Z 31014G22KT 10SM OVC019 11/08 A2974 RMK AO2 SLP069
T01110083





000
SAUS41 KPHI 231656
MTR12N
METAR K12N 231654Z AUTO VRB06G15KT 11/07 A2975 RMK AO1 SLP078
T01060072





000
SAUS41 KPHI 231656
MTRACY
METAR KACY 231654Z 31014G22KT 10SM OVC019 11/08 A2974 RMK AO2 SLP069
T01110083





000
SAUS41 KPHI 231656
MTR12N
METAR K12N 231654Z AUTO VRB06G15KT 11/07 A2975 RMK AO1 SLP078
T01060072





000
SAUS41 KPHI 231555
MTRACY
METAR KACY 231554Z 31015G22KT 10SM OVC018 11/09 A2974 RMK AO2
RAB08E19 SLP070 P0000 T01110089





000
SAUS41 KPHI 231555
MTR12N
METAR K12N 231554Z AUTO 36007G18KT 330V040 11/07 A2976 RMK AO1
SLP081 T01060072





000
SAUS41 KPHI 231538
MTRACY
SPECI KACY 231535Z 32016KT 10SM OVC017 11/09 A2974 RMK AO2 RAB08E19
P0000 T01060089





000
SAUS41 KPHI 231456
MTRACY
METAR KACY 231454Z 31016KT 10SM OVC014 11/09 A2973 RMK AO2 RAB30E51
SLP068 P0000 60000 T01060089 51006





000
SAUS41 KPHI 231456
MTRACY
METAR KACY 231454Z 31016KT 10SM OVC014 11/09 A2973 RMK AO2 RAB30E51
SLP068 P0000 60000 T01060089 51006





000
SAUS41 KPHI 231455
MTR12N
METAR K12N 231454Z AUTO 01007KT 09/07 A2977 RMK AO1 SLP081 60004
T00940072 50003





000
SAUS41 KPHI 231357
MTRACY
METAR KACY 231354Z 32017G21KT 10SM OVC012 10/09 A2973 RMK AO2 SLP065
T01000089





000
SAUS41 KPHI 231355
MTR12N
METAR K12N 231354Z AUTO 01009KT 09/07 A2977 RMK AO1 SLP082 P0001
T00940072





000
SAUS41 KPHI 231255
MTRACY
METAR KACY 231254Z 32016G23KT 10SM OVC012 10/09 A2972 RMK AO2 SLP065
T01000089





000
SAUS41 KPHI 231255
MTR12N
METAR K12N 231254Z AUTO 36007G15KT 09/07 A2976 RMK AO1 SLP081 P0003
T00890072





000
SAUS41 KPHI 231231
MTRACY
SPECI KACY 231228Z 32015KT 10SM BKN011 OVC020 10/09 A2972 RMK AO2
T01000094





000
SAUS41 KPHI 231157
MTRACY
METAR KACY 231154Z 32014KT 10SM BKN019 OVC024 10/09 A2972 RMK AO2
RAB1059E47 SLP062 P0002 60008 70045 T01000094 10106 20100 51006





000
SAUS41 KPHI 231155
MTR12N
METAR K12N 231154Z AUTO VRB06KT 09/08 A2976 RMK AO1 SLP080 60005
70037 T00890078 10100 20089 58001





000
SAUS41 KPHI 231056
MTRACY
METAR KACY 231054Z 32013KT 10SM OVC023 11/09 A2971 RMK AO2 RAB33E42
SLP059 P0000 T01060089





000
SAUS41 KPHI 231055
MTR12N
METAR K12N 231054Z AUTO 35010G15KT 320V030 09/08 A2976 RMK AO1
SLP079 T00940078





000
SAUS41 KPHI 230956
MTRACY
METAR KACY 230954Z 32013KT 10SM OVC021 11/09 A2971 RMK AO2 SLP059
T01060094





000
SAUS41 KPHI 230956
MTRACY
METAR KACY 230954Z 32013KT 10SM OVC021 11/09 A2971 RMK AO2 SLP059
T01060094





000
SAUS41 KPHI 230955
MTR12N
METAR K12N 230954Z AUTO 01008KT 09/08 A2976 RMK AO1 SLP080 T00940078





000
SAUS41 KPHI 230955
MTR12N
METAR K12N 230954Z AUTO 01008KT 09/08 A2976 RMK AO1 SLP080 T00940078





000
SAUS41 KPHI 230855
MTRACY
METAR KACY 230854Z 34014KT 10SM OVC021 11/09 A2970 RMK AO2 RAE18
SLP055 P0002 60006 T01060094 53002





000
SAUS41 KPHI 230855
MTR12N
METAR K12N 230854Z AUTO 36007KT 09/08 A2976 RMK AO1 SLP079 P0004
60005 T00940078 56010





000
SAUS41 KPHI 230757
MTRACY
METAR KACY 230754Z 33015KT 4SM -RA BR SCT009 BKN015 OVC021 10/09
A2969 RMK AO2 SLP052 P0003 T01000094





000
SAUS41 KPHI 230755
MTR12N
METAR K12N 230754Z AUTO VRB06KT 09/08 A2976 RMK AO1 SLP081 P0001
T00940083





000
SAUS41 KPHI 230721
MTRACY
SPECI KACY 230718Z 34017G22KT 7SM -RA SCT009 OVC017 10/09 A2969 RMK
AO2 P0000 T01000094





000
SAUS41 KPHI 230657
MTRACY
METAR KACY 230654Z 33014G23KT 6SM -RA BR SCT010 BKN013 OVC018 10/09
A2969 RMK AO2 RAB0558 SLP054 P0001 T01000094





000
SAUS41 KPHI 230655
MTR12N
METAR K12N 230654Z AUTO 36007KT 10/08 A2978 RMK AO1 SLP084 T01000078





000
SAUS41 KPHI 230625
MTRACY
SPECI KACY 230624Z 33013KT 4SM -RA BR BKN010 OVC016 11/09 A2969 RMK
AO2 RAB0558 CIG 008V013 P0000 T01060094





000
SAUS41 KPHI 230556
MTRACY
METAR KACY 230554Z 33016G24KT 8SM SCT010 BKN017 OVC024 11/09 A2969
RMK AO2 RAE22B42E51 SLP053 P0000 60023 T01060094 10111 20106 55005





000
SAUS41 KPHI 230555
MTR12N
METAR K12N 230554Z AUTO 36007KT 340V070 10/08 A2979 RMK AO1 SLP088
60021 T01000078 10100 20094 58007





000
SAUS41 KPHI 230551
MTRACY
SPECI KACY 230550Z 33016KT 7SM -RA BKN010 BKN017 OVC024 11/09 A2969
RMK AO2 RAE22B42 CIG 008V013 P0000





000
SAUS41 KPHI 230551
MTRACY
SPECI KACY 230550Z 33016KT 7SM -RA BKN010 BKN017 OVC024 11/09 A2969
RMK AO2 RAE22B42 CIG 008V013 P0000





000
SAUS41 KPHI 230540
MTRACY
SPECI KACY 230538Z 33016KT 7SM FEW009 BKN019 OVC030 11/10 A2969 RMK
AO2 RAE22 P0000 T01060100





000
SAUS41 KPHI 230456
MTR12N
METAR K12N 230454Z AUTO VRB06KT 09/08 A2980 RMK AO1 SLP093 P0001
T00940078 401220094





000
SAUS41 KPHI 230456
MTR12N
METAR K12N 230454Z AUTO VRB06KT 09/08 A2980 RMK AO1 SLP093 P0001
T00940078 401220094





000
SAUS41 KPHI 230455
MTRACY
METAR KACY 230454Z 33014G25KT 9SM -RA SCT012 BKN017 OVC022 11/10
A2970 RMK AO2 SLP058 P0002 T01060100 401670106





000
SAUS41 KPHI 230455
MTRACY
METAR KACY 230454Z 33014G25KT 9SM -RA SCT012 BKN017 OVC022 11/10
A2970 RMK AO2 SLP058 P0002 T01060100 401670106





000
SAUS41 KPHI 230403
MTRACY
SPECI KACY 230401Z 33017KT 9SM -RA SCT010 BKN016 OVC026 11/10 A2972
RMK AO2 P0001 T01060100





000
SAUS41 KPHI 230356
MTRACY
METAR KACY 230354Z 32016G21KT 8SM -RA BKN007 OVC021 11/10 A2972 RMK
AO2 SLP064 P0004 T01060100





000
SAUS41 KPHI 230356
MTRACY
METAR KACY 230354Z 32016G21KT 8SM -RA BKN007 OVC021 11/10 A2972 RMK
AO2 SLP064 P0004 T01060100





000
SAUS41 KPHI 230355
MTR12N
METAR K12N 230354Z AUTO 36008KT 09/08 A2981 RMK AO1 SLP095 P0010
T00940083





000
SAUS41 KPHI 230355
MTR12N
METAR K12N 230354Z AUTO 36008KT 09/08 A2981 RMK AO1 SLP095 P0010
T00940083





000
SAUS41 KPHI 230257
MTRACY
METAR KACY 230254Z 33012G22KT 10SM -RA BKN007 OVC021 11/10 A2974 RMK
AO2 SLP071 P0003 60017 T01110100 58008





000
SAUS41 KPHI 230255
MTR12N
METAR K12N 230254Z AUTO 36009G14KT 10/08 A2981 RMK AO1 SLP097 P0002
60010 T01000083 58016





000
SAUS41 KPHI 230205
MTRACY
SPECI KACY 230203Z 34017G23KT 8SM -RA BKN009 BKN017 OVC022 11/10
A2975 RMK AO2 P0000 T01110100





000
SAUS41 KPHI 230205
MTRACY
SPECI KACY 230203Z 34017G23KT 8SM -RA BKN009 BKN017 OVC022 11/10
A2975 RMK AO2 P0000 T01110100





000
SAUS41 KPHI 230157
MTRACY
METAR KACY 230154Z 33015G23KT 6SM -RA BR BKN011 BKN017 OVC024 11/10
A2976 RMK AO2 SLP076 P0007 T01110100





000
SAUS41 KPHI 230157
MTRACY
METAR KACY 230154Z 33015G23KT 6SM -RA BR BKN011 BKN017 OVC024 11/10
A2976 RMK AO2 SLP076 P0007 T01110100





000
SAUS41 KPHI 230155
MTR12N
METAR K12N 230154Z AUTO VRB06KT 10/09 A2984 RMK AO1 SLP106 P0004
T01000089





000
SAUS41 KPHI 230155
MTR12N
METAR K12N 230154Z AUTO VRB06KT 10/09 A2984 RMK AO1 SLP106 P0004
T01000089





000
SAUS41 KPHI 230123
MTRACY
SPECI KACY 230120Z 34017G23KT 7SM -RA SCT010 BKN013 OVC021 11/10
A2976 RMK AO2 P0002 T01110100





000
SAUS41 KPHI 230123
MTRACY
SPECI KACY 230120Z 34017G23KT 7SM -RA SCT010 BKN013 OVC021 11/10
A2976 RMK AO2 P0002 T01110100





000
SAUS41 KPHI 230116
MTRACY
SPECI KACY 230113Z 34018G23KT 8SM -RA FEW010 BKN015 OVC021 11/10
A2976 RMK AO2 P0002 T01110100





000
SAUS41 KPHI 230116
MTRACY
SPECI KACY 230113Z 34018G23KT 8SM -RA FEW010 BKN015 OVC021 11/10
A2976 RMK AO2 P0002 T01110100





000
SAUS41 KPHI 230057
MTRACY
METAR KACY 230054Z 34014G25KT 9SM -RA BKN014 BKN021 OVC055 11/10
A2976 RMK AO2 SLP077 P0007 T01110100





000
SAUS41 KPHI 230057
MTRACY
METAR KACY 230054Z 34014G25KT 9SM -RA BKN014 BKN021 OVC055 11/10
A2976 RMK AO2 SLP077 P0007 T01110100





000
SAUS41 KPHI 230055
MTR12N
METAR K12N 230054Z AUTO 36006KT 10/09 A2985 RMK AO1 SLP109 P0004
T01000089





000
SAUS41 KPHI 230055
MTR12N
METAR K12N 230054Z AUTO 36006KT 10/09 A2985 RMK AO1 SLP109 P0004
T01000089





000
SAUS41 KPHI 222356
MTRACY
METAR KACY 222354Z 35015G22KT 5SM RA BR BKN014 BKN021 OVC055 11/10
A2977 RMK AO2 SLP079 P0004 60014 T01110100 10139 20111 50003





000
SAUS41 KPHI 222356
MTRACY
METAR KACY 222354Z 35015G22KT 5SM RA BR BKN014 BKN021 OVC055 11/10
A2977 RMK AO2 SLP079 P0004 60014 T01110100 10139 20111 50003





000
SAUS41 KPHI 222355
MTR12N
METAR K12N 222354Z AUTO VRB06KT 10/09 A2986 RMK AO1 SLP113 P0003
60011 T01000089 10122 20100 58009





000
SAUS41 KPHI 222355
MTR12N
METAR K12N 222354Z AUTO VRB06KT 10/09 A2986 RMK AO1 SLP113 P0003
60011 T01000089 10122 20100 58009





000
SAUS41 KPHI 222257
MTRACY
METAR KACY 222254Z 34015KT 10SM -RA OVC019 12/10 A2977 RMK AO2 RAB09
SLP080 P0001 T01170100





000
SAUS41 KPHI 222257
MTRACY
METAR KACY 222254Z 34015KT 10SM -RA OVC019 12/10 A2977 RMK AO2 RAB09
SLP080 P0001 T01170100





000
SAUS41 KPHI 222255
MTR12N
METAR K12N 222254Z AUTO 36006KT 11/09 A2987 RMK AO1 SLP118 P0004
T01060094





000
SAUS41 KPHI 222255
MTR12N
METAR K12N 222254Z AUTO 36006KT 11/09 A2987 RMK AO1 SLP118 P0004
T01060094





000
SAUS41 KPHI 222155
MTRACY
METAR KACY 222154Z 35013KT 10SM OVC016 12/11 A2977 RMK AO2 RAE2059
SLP081 P0000 T01170106





000
SAUS41 KPHI 222155
MTR12N
METAR K12N 222154Z AUTO VRB05KT 11/09 A2988 RMK AO1 SLP121 P0004
T01060094





000
SAUS41 KPHI 222055
MTRACY
METAR KACY 222054Z 34017G22KT 10SM -RA FEW010 OVC015 12/11 A2976 RMK
AO2 SLP077 P0004 60009 T01220111 58000





000
SAUS41 KPHI 222055
MTR12N
METAR K12N 222054Z AUTO 02007KT 330V060 12/08 A2989 RMK AO1 SLP121
T01170083 58009





000
SAUS41 KPHI 221956
MTRACY
METAR KACY 221954Z 36014G20KT 7SM -RA BKN010 OVC014 13/12 A2976 RMK
AO2 RAB01E20B44 CIG 008V012 SLP077 P0001 T01280117





000
SAUS41 KPHI 221955
MTR12N
METAR K12N 221954Z AUTO VRB05KT 11/09 A2990 RMK AO1 SLP126 T01110089





000
SAUS41 KPHI 221856
MTRACY
METAR KACY 221854Z 35015G22KT 10SM OVC013 13/12 A2976 RMK AO2
RAB22E54 SLP077 P0004 T01280117





000
SAUS41 KPHI 221855
MTR12N
METAR K12N 221854Z AUTO 03007G26KT 330V060 12/08 A2991 RMK AO1 PK
WND 04026/1845 SLP129 T01170083





000
SAUS41 KPHI 221854
MTRACY
SPECI KACY 221851Z 36017G22KT 8SM -RA OVC012 13/12 A2976 RMK AO2
RAB22 P0004





000
SAUS41 KPHI 221844
MTRACY
SPECI KACY 221841Z 35015KT 2SM RA BR OVC012 13/12 A2977 RMK AO2
RAB22 P0003 T01280122





000
SAUS41 KPHI 221755
MTRACY
METAR KACY 221754Z 01014G21KT 10SM OVC012 14/12 A2979 RMK AO2 PK WND
03027/1658 SLP086 T01390117 10167 20117 58007





000
SAUS41 KPHI 221755
MTR12N
METAR K12N 221754Z AUTO 01007KT 310V050 12/09 A2991 RMK AO1 SLP131
T01170089 10117 20100 58021





000
SAUS41 KPHI 221755
MTRACY
METAR KACY 221754Z 01014G21KT 10SM OVC012 14/12 A2979 RMK AO2 PK WND
03027/1658 SLP086 T01390117 10167 20117 58007





000
SAUS41 KPHI 221755
MTR12N
METAR K12N 221754Z AUTO 01007KT 310V050 12/09 A2991 RMK AO1 SLP131
T01170089 10117 20100 58021





000
SAUS41 KPHI 221740
MTRACY
SPECI KACY 221738Z 02015G21KT 10SM OVC014 14/12 A2979 RMK AO2 PK WND
03027/1658 T01390117





000
SAUS41 KPHI 221740
MTRACY
SPECI KACY 221738Z 02015G21KT 10SM OVC014 14/12 A2979 RMK AO2 PK WND
03027/1658 T01390117





000
SAUS41 KPHI 221656
MTRACY
METAR KACY 221654Z 02012G26KT 10SM BKN018 OVC024 16/12 A2979 RMK AO2
PK WND 03026/1621 SLP088 T01560117





000
SAUS41 KPHI 221656
MTRACY
METAR KACY 221654Z 02012G26KT 10SM BKN018 OVC024 16/12 A2979 RMK AO2
PK WND 03026/1621 SLP088 T01560117





000
SAUS41 KPHI 221655
MTR12N
METAR K12N 221654Z AUTO 04008G18KT 11/09 A2994 RMK AO1 SLP141
T01110089





000
SAUS41 KPHI 221655
MTR12N
METAR K12N 221654Z AUTO 04008G18KT 11/09 A2994 RMK AO1 SLP141
T01110089





000
SAUS41 KPHI 221555
MTRACY
METAR KACY 221554Z 03019G26KT 10SM BKN018 OVC026 16/12 A2981 RMK AO2
PK WND 03026/1553 SLP094 T01560122





000
SAUS41 KPHI 221555
MTR12N
METAR K12N 221554Z AUTO 04010G18KT 11/09 A2996 RMK AO1 SLP147
T01110089





000
SAUS41 KPHI 221555
MTRACY
METAR KACY 221554Z 03019G26KT 10SM BKN018 OVC026 16/12 A2981 RMK AO2
PK WND 03026/1553 SLP094 T01560122





000
SAUS41 KPHI 221555
MTR12N
METAR K12N 221554Z AUTO 04010G18KT 11/09 A2996 RMK AO1 SLP147
T01110089





000
SAUS41 KPHI 221522
MTRACY
SPECI KACY 221520Z 03017G24KT 10SM BKN016 OVC020 15/12 A2981 RMK AO2
T01500122





000
SAUS41 KPHI 221455
MTR12N
METAR K12N 221454Z AUTO 04008G18KT 11/09 A2998 RMK AO1 SLP153
T01110089 53007





000
SAUS41 KPHI 221455
MTRACY
METAR KACY 221454Z 02013KT 10SM OVC013 14/12 A2981 RMK AO2 SLP093
T01440122 58009





000
SAUS41 KPHI 221355
MTR12N
METAR K12N 221354Z AUTO 04009G16KT 11/09 A2997 RMK AO1 SLP149
T01060094





000
SAUS41 KPHI 221354
MTRACY
METAR KACY 221354Z 01015G22KT 10SM OVC014 13/12 A2983 RMK AO2 SLP099
T01330117





000
SAUS41 KPHI 221323
MTRACY
SPECI KACY 221322Z 01013G19KT 10SM BKN016 13/12 A2982 RMK AO2
T01330117





000
SAUS41 KPHI 221256
MTRACY
METAR KACY 221254Z 01010KT 10SM SCT060 13/11 A2983 RMK AO2 SLP102
T01280111





000
SAUS41 KPHI 221255
MTR12N
METAR K12N 221254Z AUTO 04007G16KT 010V070 11/09 A2996 RMK AO1
SLP146 T01060094





    US Dept of Commerce
    National Oceanic and Atmospheric Administration
    National Weather Service
    1325 East West Highway
    Silver Spring, MD 20910
    Page Author: NWS Internet Services Team
Disclaimer
Information Quality
Credits
Glossary
Privacy Policy
Freedom of Information Act (FOIA)
About Us
Career Opportunities